East Mansfield, MA

9:29 AM EDT on October 17, 2019 (GMT -0400)
Home3 | | Change Station
Active Advisory: Wind Advisory

Elev 25 ft 42.01 °N, 71.17 °W | Updated 11 seconds ago

Overcast
Overcast
51.1 °F
Feels Like 51.1 °F
N
5.6
Wind Variable Wind from SSW
Gusts 11.2 mph

Today
High -- | Low -- °F
--% Chance of Precip.
Yesterday
High -- | Low -- °F
Precip. -- in
Pressure 29.01 in
Visibility 10.0 miles
Clouds Few 3000 ft
Mostly Cloudy 6000 ft
Dew Point 51 °F
Humidity 99%
Rainfall 1.54 in
Snow Depth Not available.
6:59 AM 6:00 PM
Waning Gibbous, 87% visible
METAR KOWD 171253Z 24017G31KT 10SM FEW030 BKN060 12/04 A2901 RMK AO2 PK WND 23033/1241 SLP824 T01170039
Pressure 29.01 in
Visibility 10.0 miles
Clouds Few 3000 ft
Mostly Cloudy 6000 ft
Dew Point 51 °F
Humidity 99%
Rainfall 1.54 in
Snow Depth Not available.
6:59 AM 6:00 PM
Waning Gibbous, 87% visible
METAR KOWD 171253Z 24017G31KT 10SM FEW030 BKN060 12/04 A2901 RMK AO2 PK WND 23033/1241 SLP824 T01170039

Get Your Daily Forecast Email!

Thanks for signing up!

Be on the lookout for a verification email in your inbox.

You'll start receiving severe weather alerts in your inbox..

×

10-Day Weather Forecast

Almanac

Astronomy

Oct. 17, 2019 Rise Set
Actual Time
Civil Twilight
Nautical Twilight
Astronomical Twilight
Moon
Length of Visible Light
Length of Day
Tomorrow will be .
, % of the Moon is Illuminated

Today's Extremes

State Highs State Lows

Community

WunderPhotos

Category 6

Welcome to Category 6. This is the collective home for Weather Underground's featured writeups by Dr. Jeff Masters (right), Bob Henson (left), Chris Burt, and other regular contributors.

Nearby

Air Quality

  Air Quality AQ Index Pollutant
Not available.

Snow Depth

Station Depth Elevation

Earthquake Activity

City Distance Mag. Time & Date
Minimum magnitude displayed is 2.5.

Coastal Water Temperatures

Place Temperature

Stations

Nearby Weather Stations

Station Location Temp. Windchill Dew Point Humidity Wind Precip. Elev Updated Type
                   

Watches & Warnings

Wind Advisory
Issued: 8:14 AM EDT Oct. 17, 2019 – National Weather Service

... Wind Advisory remains in effect until 6 PM EDT this evening...

* what... southwest winds 20 to 30 mph with gusts between 45 and 55
mph expected.

* Where... all of southern New England northwest of the Cape Cod
canal.

* When... until 6 PM EDT this evening.

* Impacts... the potential will continue for scattered tree damage
as well as scattered power outages. Travel will be difficult,
especially for high profile vehicles.

Precautionary/preparedness actions...

Use extra caution when driving, especially if operating a high
profile vehicle. Secure outdoor objects.